Indiana Harbor — WXN3191 — position and weather

sailwx.info

Track history (hours):
 
Tides and Currents Weather Stations Pressure Air Temp Water Temp Dewpoint Dewpoint Depression Visibility Wind Speed Wind Dir Waves Ship Positions

Indiana Harbor

Owner: American Steamship Company, WILLIAMSVILLE, NY. More information available from US FCC via Universal Licensing System and Coast Guard Vessel Documentation Center.

Last reported at 2017-Dec-06 20:36 UTC. Time now 2017-Dec-13 15:06 UTC.
Position N 45°21' W 083°19'.

Length 304 m.

Type: Ship. MMSI: 366938730.

Date/timePositionNaut miles runAvg speedWind from/ knotsBaromVisibWave heightAir tempDewpointWater temp
2017-Dec-06 20:36N 45°21' W 083°19'44 2.5
2017-Dec-06 03:00N 46°00' W 083°48'0 0.0 260 / 351003.7 2.2 -3.3
2017-Dec-05 14:00N 46°00' W 083°48'   230 / 40996.9 5.4 4.4
2017-Dec-03 07:26N 46°57' W 091°23'512.0
2017-Dec-03 07:00N 46°55' W 091°30'612.0
2017-Dec-03 06:30N 46°52' W 091°38'611.9
2017-Dec-03 06:00N 46°49' W 091°45'611.3
2017-Dec-03 05:30N 46°47' W 091°53'611.7
2017-Dec-03 05:00N 46°47' W 092°02'3 6.2
2017-Dec-03 04:30N 46°46' W 092°06'2 3.5
2017-Dec-03 04:00N 46°45' W 092°07'0 0.3
2017-Dec-03 03:30N 46°45' W 092°07'0 0.0
2017-Dec-03 03:00N 46°45' W 092°07'0 0.0
2017-Dec-03 02:30N 46°45' W 092°07'0 0.0
2017-Dec-03 02:00N 46°45' W 092°07'0 0.0
2017-Dec-03 01:30N 46°45' W 092°07'0 0.0
2017-Dec-03 01:00N 46°45' W 092°07'0 0.0
2017-Dec-03 00:30N 46°45' W 092°07'0 0.0
2017-Dec-03 00:00N 46°45' W 092°07'0 0.0
2017-Dec-02 23:30N 46°45' W 092°07'0 0.0
2017-Dec-02 23:00N 46°45' W 092°07'0 0.0
2017-Dec-02 22:30N 46°45' W 092°07'0 0.0
2017-Dec-02 22:00N 46°45' W 092°07'0 0.0
2017-Dec-02 21:30N 46°45' W 092°07'0 0.0
2017-Dec-02 21:00N 46°45' W 092°07'0 0.0
2017-Dec-02 20:30N 46°45' W 092°07'0 0.0
2017-Dec-02 20:00N 46°45' W 092°07'0 0.0
2017-Dec-02 19:30N 46°45' W 092°07'0 0.0
2017-Dec-02 19:00N 46°45' W 092°07'0 0.0
2017-Dec-02 18:30N 46°45' W 092°07'0 0.0
2017-Dec-02 18:00N 46°45' W 092°07'0 0.0
2017-Dec-02 17:30N 46°45' W 092°07'0 0.0
2017-Dec-02 17:00N 46°45' W 092°07'0 0.4
2017-Dec-02 16:30N 46°45' W 092°07'1 2.3
2017-Dec-02 16:00N 46°46' W 092°06'2 5.0
2017-Dec-02 15:30N 46°47' W 092°03'1 2.0
2017-Dec-02 15:00N 46°47' W 092°03'0 0.0
2017-Dec-02 14:30N 46°47' W 092°03'0 0.0
2017-Dec-02 14:00N 46°47' W 092°03'0 0.0
2017-Dec-02 13:30N 46°47' W 092°03'0 0.1
2017-Dec-02 13:00N 46°47' W 092°03'0 0.1
2017-Dec-02 12:30N 46°46' W 092°03'0 0.0
2017-Dec-02 12:00N 46°46' W 092°03'0 0.1
2017-Dec-02 11:30N 46°46' W 092°03'0 0.1
2017-Dec-02 11:00N 46°46' W 092°03'0 0.2
2017-Dec-02 10:30N 46°47' W 092°03'1 2.3
2017-Dec-02 10:00N 46°47' W 092°04'2 3.7
2017-Dec-02 09:30N 46°45' W 092°06'0 0.5
2017-Dec-02 09:00N 46°46' W 092°06'0 0.1
2017-Dec-02 08:30N 46°46' W 092°06'0 0.0
2017-Dec-02 08:00N 46°46' W 092°06'0 0.0
2017-Dec-02 07:30N 46°46' W 092°06'0 0.0
2017-Dec-02 07:00N 46°46' W 092°06'0 0.0
2017-Dec-02 06:30N 46°46' W 092°06'2 4.1
2017-Dec-02 06:00N 46°47' W 092°04'0 0.4
2017-Dec-02 05:30N 46°47' W 092°04'612.6
2017-Dec-02 05:00N 46°51' W 091°56'712.8
2017-Dec-02 04:30N 46°54' W 091°48'29211.5
2017-Dec-01 03:00N 46°36' W 084°42'63 4.0 310 / 201014.2 5.4 3.8
2017-Nov-30 11:09N 45°47' W 083°45'212.9
2017-Nov-30 11:00N 45°46' W 083°43'712.7
2017-Nov-30 10:28N 45°40' W 083°38'612.7
2017-Nov-30 10:00N 45°35' W 083°33'613.0
2017-Nov-30 09:30N 45°30' W 083°28'712.9
2017-Nov-30 09:00N 45°24' W 083°23'9313.3
2017-Nov-30 02:00N 44°06' W 082°12'   170 / 151025.3 2.2 2.2
2017-Nov-26 22:05N 45°25' W 083°17'112.2
2017-Nov-26 21:59N 45°26' W 083°18'612.1
2017-Nov-26 21:30N 45°30' W 083°23'612.2
2017-Nov-26 21:00N 45°35' W 083°29'  
Track history (hours):
 
Tides and Currents Weather Stations Pressure Air Temp Water Temp Dewpoint Dewpoint Depression Visibility Wind Speed Wind Dir Waves Ship Positions

Indiana Harbor

Owner: American Steamship Company, WILLIAMSVILLE, NY. More information available from US FCC via Universal Licensing System and Coast Guard Vessel Documentation Center.

Last reported at 2017-Dec-06 20:36 UTC. Time now 2017-Dec-13 15:06 UTC.
Position N 45°21' W 083°19'.

Length 304 m.

Type: Ship. MMSI: 366938730.

Date/timePositionNaut miles runAvg speedWind from/ knotsBaromVisibWave heightAir tempDewpointWater temp
2017-Dec-06 20:36N 45°21' W 083°19'44 2.5
2017-Dec-06 03:00N 46°00' W 083°48'0 0.0 260 / 351003.7 2.2 -3.3
2017-Dec-05 14:00N 46°00' W 083°48'   230 / 40996.9 5.4 4.4
2017-Dec-03 07:26N 46°57' W 091°23'512.0
2017-Dec-03 07:00N 46°55' W 091°30'612.0
2017-Dec-03 06:30N 46°52' W 091°38'611.9
2017-Dec-03 06:00N 46°49' W 091°45'611.3
2017-Dec-03 05:30N 46°47' W 091°53'611.7
2017-Dec-03 05:00N 46°47' W 092°02'3 6.2
2017-Dec-03 04:30N 46°46' W 092°06'2 3.5
2017-Dec-03 04:00N 46°45' W 092°07'0 0.3
2017-Dec-03 03:30N 46°45' W 092°07'0 0.0
2017-Dec-03 03:00N 46°45' W 092°07'0 0.0
2017-Dec-03 02:30N 46°45' W 092°07'0 0.0
2017-Dec-03 02:00N 46°45' W 092°07'0 0.0
2017-Dec-03 01:30N 46°45' W 092°07'0 0.0
2017-Dec-03 01:00N 46°45' W 092°07'0 0.0
2017-Dec-03 00:30N 46°45' W 092°07'0 0.0
2017-Dec-03 00:00N 46°45' W 092°07'0 0.0
2017-Dec-02 23:30N 46°45' W 092°07'0 0.0
2017-Dec-02 23:00N 46°45' W 092°07'0 0.0
2017-Dec-02 22:30N 46°45' W 092°07'0 0.0
2017-Dec-02 22:00N 46°45' W 092°07'0 0.0
2017-Dec-02 21:30N 46°45' W 092°07'0 0.0
2017-Dec-02 21:00N 46°45' W 092°07'0 0.0
2017-Dec-02 20:30N 46°45' W 092°07'0 0.0
2017-Dec-02 20:00N 46°45' W 092°07'0 0.0
2017-Dec-02 19:30N 46°45' W 092°07'0 0.0
2017-Dec-02 19:00N 46°45' W 092°07'0 0.0
2017-Dec-02 18:30N 46°45' W 092°07'0 0.0
2017-Dec-02 18:00N 46°45' W 092°07'0 0.0
2017-Dec-02 17:30N 46°45' W 092°07'0 0.0
2017-Dec-02 17:00N 46°45' W 092°07'0 0.4
2017-Dec-02 16:30N 46°45' W 092°07'1 2.3
2017-Dec-02 16:00N 46°46' W 092°06'2 5.0
2017-Dec-02 15:30N 46°47' W 092°03'1 2.0
2017-Dec-02 15:00N 46°47' W 092°03'0 0.0
2017-Dec-02 14:30N 46°47' W 092°03'0 0.0
2017-Dec-02 14:00N 46°47' W 092°03'0 0.0
2017-Dec-02 13:30N 46°47' W 092°03'0 0.1
2017-Dec-02 13:00N 46°47' W 092°03'0 0.1
2017-Dec-02 12:30N 46°46' W 092°03'0 0.0
2017-Dec-02 12:00N 46°46' W 092°03'0 0.1
2017-Dec-02 11:30N 46°46' W 092°03'0 0.1
2017-Dec-02 11:00N 46°46' W 092°03'0 0.2
2017-Dec-02 10:30N 46°47' W 092°03'1 2.3
2017-Dec-02 10:00N 46°47' W 092°04'2 3.7
2017-Dec-02 09:30N 46°45' W 092°06'0 0.5
2017-Dec-02 09:00N 46°46' W 092°06'0 0.1
2017-Dec-02 08:30N 46°46' W 092°06'0 0.0
2017-Dec-02 08:00N 46°46' W 092°06'0 0.0
2017-Dec-02 07:30N 46°46' W 092°06'0 0.0
2017-Dec-02 07:00N 46°46' W 092°06'0 0.0
2017-Dec-02 06:30N 46°46' W 092°06'2 4.1
2017-Dec-02 06:00N 46°47' W 092°04'0 0.4
2017-Dec-02 05:30N 46°47' W 092°04'612.6
2017-Dec-02 05:00N 46°51' W 091°56'712.8
2017-Dec-02 04:30N 46°54' W 091°48'29211.5
2017-Dec-01 03:00N 46°36' W 084°42'63 4.0 310 / 201014.2 5.4 3.8
2017-Nov-30 11:09N 45°47' W 083°45'212.9
2017-Nov-30 11:00N 45°46' W 083°43'712.7
2017-Nov-30 10:28N 45°40' W 083°38'612.7
2017-Nov-30 10:00N 45°35' W 083°33'613.0
2017-Nov-30 09:30N 45°30' W 083°28'712.9
2017-Nov-30 09:00N 45°24' W 083°23'9313.3
2017-Nov-30 02:00N 44°06' W 082°12'   170 / 151025.3 2.2 2.2
2017-Nov-26 22:05N 45°25' W 083°17'112.2
2017-Nov-26 21:59N 45°26' W 083°18'612.1
2017-Nov-26 21:30N 45°30' W 083°23'612.2
2017-Nov-26 21:00N 45°35' W 083°29'  

Dump ship's entire track history